Center Line, Michigan
Current Conditions -  °F | °C
As of 7:53 AM on Tuesday 21 Oct 2014 (Local Time) from KDET Reporting Station
Overcast Overcast  
Wind Chill: 50°   Ceiling: 2400
Heat Index: 50°   Visibility: 10mi
Dew Point: 45°   Wind: 7mph
Humidity: 83%   Direction: 340°NNW
Pressure: 29.95"   Gusts: NA
Location:  42.48°N, 83.03°W
Report Text: KDET 211153Z 34006KT 10SM FEW010 SCT018 OVC024 10/07 A2995 RMK AO2 RAB21E31 SLP142 P0000 60000 70002 T01000072 10106 20094 53018
Loading
Personal Weather Stations






























Interactive Weather Map
Tropical Storm Tracking
New forecast layout! Learn more

10-Day Weather Forecast

Advertisements
Track Severe Weather on mobile